Time;durP1;ratioP1;P1;durP2;ratioP2;P2;SDS_P1;SDS_P2;PMS_P1;PMS_P2;Temp;Humidity;BMP_temperature;BMP_pressure;BME280_temperature;BME280_humidity;BME280_pressure;Samples;Min_cycle;Max_cycle;Signal;HPM_P1;HPM_P2
2022/05/07 00:01:11;;;;;;;5.53;2.90;;;19.60;67.40;;;;;;5121107;27;45352;-83
2022/05/07 00:03:38;;;;;;;4.13;2.90;;;19.50;66.40;;;;;;5118024;27;45519;-83
2022/05/07 00:06:05;;;;;;;4.40;2.92;;;19.50;66.40;;;;;;5116063;27;48285;-83
2022/05/07 00:08:32;;;;;;;4.78;3.03;;;19.40;66.40;;;;;;5124655;27;45789;-83
2022/05/07 00:10:59;;;;;;;3.63;3.13;;;19.40;66.60;;;;;;5128741;27;45372;-83
2022/05/07 00:13:26;;;;;;;5.07;3.28;;;19.40;66.70;;;;;;5126417;27;45427;-83
2022/05/07 00:18:38;;;;;;;4.18;2.78;;;19.40;66.70;;;;;;5124160;27;45189;-83
2022/05/07 00:21:05;;;;;;;3.75;2.63;;;19.40;66.70;;;;;;5127077;27;45251;-83
2022/05/07 00:23:32;;;;;;;4.32;2.85;;;19.40;66.80;;;;;;5126151;27;45319;-84
2022/05/07 00:25:59;;;;;;;5.32;2.85;;;19.40;66.80;;;;;;5127002;27;47112;-84
2022/05/07 00:28:26;;;;;;;4.13;2.85;;;19.40;66.70;;;;;;5126791;27;45410;-84
2022/05/07 00:30:53;;;;;;;4.57;2.70;;;19.40;66.60;;;;;;5127576;27;45374;-83
2022/05/07 00:33:20;;;;;;;4.93;3.10;;;19.50;66.60;;;;;;5124036;27;45394;-83
2022/05/07 00:35:48;;;;;;;3.95;2.70;;;19.40;66.30;;;;;;5127018;27;47123;-83
2022/05/07 00:38:15;;;;;;;6.03;2.83;;;19.40;66.30;;;;;;5125554;27;45179;-84
2022/05/07 00:40:42;;;;;;;4.55;3.33;;;19.30;66.20;;;;;;5128274;27;45260;-83
2022/05/07 00:43:09;;;;;;;4.30;3.13;;;19.50;66.30;;;;;;5127015;27;45379;-83
2022/05/07 00:45:37;;;;;;;3.80;3.00;;;19.50;66.10;;;;;;5127764;27;47887;-83
2022/05/07 00:48:04;;;;;;;5.53;3.40;;;19.50;66.10;;;;;;5129315;27;45225;-83
2022/05/07 00:53:16;;;;;;;3.75;2.85;;;19.50;66.00;;;;;;5120317;27;45133;-83
2022/05/07 00:55:45;;;;;;;4.40;3.10;;;19.50;66.10;;;;;;5110637;27;47662;-83
2022/05/07 00:58:12;;;;;;;4.47;2.67;;;19.50;66.30;;;;;;5110785;27;45171;-83
2022/05/07 01:00:39;;;;;;;4.22;2.60;;;19.50;66.30;;;;;;5129413;27;45327;-83
2022/05/07 01:03:05;;;;;;;5.80;3.75;;;19.40;66.20;;;;;;5129953;27;45369;-83
2022/05/07 01:05:32;;;;;;;5.43;3.20;;;19.40;66.20;;;;;;5131469;27;47252;-83
2022/05/07 01:08:00;;;;;;;4.30;2.80;;;19.40;66.10;;;;;;5127837;27;45241;-83
2022/05/07 01:10:28;;;;;;;6.07;3.58;;;19.50;66.20;;;;;;5129078;27;45619;-83
2022/05/07 01:12:55;;;;;;;5.70;3.28;;;19.40;66.00;;;;;;5131203;27;45408;-83
2022/05/07 01:15:22;;;;;;;5.43;3.50;;;19.40;66.00;;;;;;5130184;27;46261;-83
2022/05/07 01:17:49;;;;;;;5.68;3.38;;;19.40;66.00;;;;;;5129927;27;45345;-83
2022/05/07 01:20:16;;;;;;;4.78;3.20;;;19.50;66.20;;;;;;5130507;27;45159;-83
2022/05/07 01:22:46;;;;;;;4.45;2.95;;;19.40;66.00;;;;;;5129170;27;45157;-83
2022/05/07 01:25:13;;;;;;;4.82;3.30;;;19.40;67.00;;;;;;5128098;27;45982;-83
2022/05/07 01:27:39;;;;;;;4.35;3.22;;;19.50;65.90;;;;;;5129719;27;45241;-83
2022/05/07 01:30:08;;;;;;;5.03;3.00;;;19.50;65.80;;;;;;5130258;27;45542;-83
2022/05/07 01:32:34;;;;;;;4.15;3.20;;;19.50;65.70;;;;;;5129113;27;45378;-83
2022/05/07 01:35:01;;;;;;;4.50;3.40;;;19.50;65.70;;;;;;5130075;27;46187;-83
2022/05/07 01:37:29;;;;;;;4.00;3.20;;;19.50;65.60;;;;;;5123377;27;45543;-83
2022/05/07 01:39:57;;;;;;;5.60;3.35;;;19.50;65.60;;;;;;5124534;27;45552;-83
2022/05/07 01:42:24;;;;;;;4.60;3.58;;;19.50;65.40;;;;;;5113889;27;45218;-83
2022/05/07 01:44:51;;;;;;;4.65;3.33;;;19.50;65.30;;;;;;5127815;27;48286;-83
2022/05/07 01:50:02;;;;;;;4.90;3.50;;;19.50;65.50;;;;;;5128718;27;45217;-83
2022/05/07 01:52:29;;;;;;;4.38;3.38;;;19.50;65.50;;;;;;5129283;27;45481;-83
2022/05/07 01:54:57;;;;;;;4.25;3.47;;;19.50;65.50;;;;;;5130509;27;45973;-83
2022/05/07 01:57:24;;;;;;;7.75;3.28;;;19.50;65.60;;;;;;5130528;27;45184;-83
2022/05/07 01:59:51;;;;;;;4.38;2.97;;;19.50;65.60;;;;;;5128274;27;45248;-83
2022/05/07 02:02:18;;;;;;;3.97;2.90;;;19.50;65.60;;;;;;5128998;27;45247;-83
2022/05/07 02:04:44;;;;;;;4.53;3.63;;;19.40;65.60;;;;;;5126365;27;46240;-83
2022/05/07 02:07:11;;;;;;;4.55;3.08;;;19.40;65.70;;;;;;5127222;27;45937;-84
2022/05/07 02:09:38;;;;;;;4.95;3.00;;;19.40;65.80;;;;;;5129199;27;45342;-83
2022/05/07 02:12:07;;;;;;;6.18;3.30;;;19.40;65.90;;;;;;5128056;27;45513;-83
2022/05/07 02:14:35;;;;;;;5.78;3.00;;;19.40;65.80;;;;;;5129096;27;45470;-83
2022/05/07 02:17:01;;;;;;;4.72;3.33;;;19.40;65.80;;;;;;5130385;27;46131;-83
2022/05/07 02:19:28;;;;;;;5.55;3.30;;;19.40;65.70;;;;;;5116174;27;45240;-83
2022/05/07 02:21:55;;;;;;;5.07;3.67;;;19.40;65.60;;;;;;5108922;27;45100;-83
2022/05/07 02:24:22;;;;;;;5.00;3.08;;;19.40;65.60;;;;;;5106984;27;47677;-83
2022/05/07 02:26:48;;;;;;;5.22;3.60;;;19.40;65.60;;;;;;5129690;27;46131;-83
2022/05/07 02:29:17;;;;;;;3.85;2.97;;;19.40;65.50;;;;;;5129414;27;45308;-83
2022/05/07 02:32:03;;;;;;;5.30;3.22;;;19.50;65.60;;;;;;5127932;27;45419;-83
2022/05/07 02:34:30;;;;;;;5.88;3.63;;;19.40;65.40;;;;;;5129823;27;47576;-83
2022/05/07 02:36:57;;;;;;;5.45;3.60;;;19.40;65.30;;;;;;5127907;27;45480;-83
2022/05/07 02:39:23;;;;;;;6.00;3.40;;;19.40;65.20;;;;;;5107074;27;45349;-83
2022/05/07 02:44:36;;;;;;;5.70;2.92;;;19.40;65.30;;;;;;5126635;27;45227;-83
2022/05/07 02:47:03;;;;;;;5.53;3.20;;;19.40;65.40;;;;;;5128348;27;45446;-83
2022/05/07 02:49:30;;;;;;;5.07;3.40;;;19.40;65.50;;;;;;5128206;27;45198;-83
2022/05/07 02:51:57;;;;;;;3.97;3.10;;;19.50;65.50;;;;;;5129776;27;45267;-82
2022/05/07 02:54:24;;;;;;;4.32;3.30;;;19.40;65.40;;;;;;5128644;27;45543;-83
2022/05/07 02:56:51;;;;;;;5.45;3.60;;;19.40;65.40;;;;;;5127965;27;45308;-83
2022/05/07 02:59:18;;;;;;;5.30;3.08;;;19.40;65.40;;;;;;5128531;27;45482;-83
2022/05/07 03:01:46;;;;;;;5.63;3.42;;;19.40;65.50;;;;;;5127603;27;45407;-83
2022/05/07 03:04:13;;;;;;;4.75;3.22;;;19.40;65.40;;;;;;5128768;27;47018;-83
2022/05/07 03:06:40;;;;;;;7.07;3.65;;;19.40;65.40;;;;;;5128366;27;45240;-83
2022/05/07 03:09:07;;;;;;;4.68;3.53;;;19.40;65.40;;;;;;5125967;27;45262;-82
2022/05/07 03:11:34;;;;;;;5.45;3.30;;;19.40;65.40;;;;;;5126501;27;45269;-83
2022/05/07 03:14:02;;;;;;;4.05;3.08;;;19.40;65.40;;;;;;5128706;27;45305;-82
2022/05/07 03:16:29;;;;;;;6.80;3.63;;;19.40;65.20;;;;;;5128104;27;46108;-82
2022/05/07 03:18:57;;;;;;;4.95;3.47;;;19.50;65.30;;;;;;5128616;27;45287;-82
2022/05/07 03:21:24;;;;;;;4.68;3.30;;;19.50;65.20;;;;;;5129161;27;45372;-83
2022/05/07 03:23:51;;;;;;;4.45;3.05;;;19.50;65.30;;;;;;5126879;27;45229;-83
2022/05/07 03:26:17;;;;;;;5.97;3.58;;;19.50;65.20;;;;;;5126102;27;45281;-83
2022/05/07 03:28:44;;;;;;;4.68;3.45;;;18.60;64.40;;;;;;5128550;27;45195;-83
2022/05/07 03:31:11;;;;;;;4.32;3.05;;;19.50;65.20;;;;;;5129686;27;45384;-82
2022/05/07 03:33:38;;;;;;;5.22;3.28;;;19.40;65.00;;;;;;5127390;27;47661;-82
2022/05/07 03:36:07;;;;;;;4.07;3.08;;;19.50;65.20;;;;;;5127068;27;45371;-82
2022/05/07 03:38:34;;;;;;;4.05;3.15;;;19.40;65.20;;;;;;5110620;27;45237;-83
2022/05/07 03:41:01;;;;;;;5.25;3.28;;;19.50;65.40;;;;;;5113017;27;45265;-83
2022/05/07 03:43:28;;;;;;;5.07;3.47;;;19.50;65.30;;;;;;5127114;27;46389;-82
2022/05/07 03:45:54;;;;;;;4.72;2.95;;;19.50;65.40;;;;;;5128780;27;45181;-82
2022/05/07 03:48:21;;;;;;;4.05;3.00;;;19.40;65.30;;;;;;5126418;27;46923;-83
2022/05/07 03:50:48;;;;;;;5.22;3.40;;;19.40;65.30;;;;;;5128777;27;45359;-82
2022/05/07 03:53:30;;;;;;;4.10;3.13;;;19.40;65.20;;;;;;5127387;27;45500;-82
2022/05/07 03:55:58;;;;;;;4.32;2.95;;;19.40;65.20;;;;;;5127260;27;45521;-83
2022/05/07 03:58:25;;;;;;;4.10;3.10;;;19.40;65.20;;;;;;5127691;27;45256;-82
2022/05/07 04:00:53;;;;;;;4.55;3.10;;;19.40;65.10;;;;;;5127808;27;45612;-82
2022/05/07 04:03:20;;;;;;;7.60;3.50;;;19.40;65.20;;;;;;5125943;27;46655;-82
2022/05/07 04:05:47;;;;;;;4.70;2.95;;;19.50;65.20;;;;;;5126908;27;45185;-83
2022/05/07 04:08:16;;;;;;;4.95;3.40;;;19.50;65.10;;;;;;5127527;27;45287;-84
2022/05/07 04:10:43;;;;;;;6.28;3.80;;;19.40;64.60;;;;;;5125949;27;45415;-84
2022/05/07 04:13:10;;;;;;;4.57;3.40;;;19.40;63.80;;;;;;5125061;27;46619;-84
2022/05/07 04:15:38;;;;;;;5.25;3.38;;;19.50;63.30;;;;;;5128418;27;45623;-84
2022/05/07 04:18:05;;;;;;;4.88;3.65;;;19.40;62.90;;;;;;5128879;27;45403;-83
2022/05/07 04:20:32;;;;;;;4.90;3.63;;;19.40;62.50;;;;;;5124032;27;45312;-84
2022/05/07 04:22:59;;;;;;;4.75;3.33;;;19.40;63.00;;;;;;5131528;27;45501;-84
2022/05/07 04:25:27;;;;;;;5.00;3.60;;;19.40;63.10;;;;;;5130163;27;45156;-84
2022/05/07 04:27:55;;;;;;;4.95;3.50;;;19.40;63.10;;;;;;5130417;27;45228;-85
2022/05/07 04:30:22;;;;;;;5.97;3.78;;;19.40;62.60;;;;;;5131786;27;45266;-85
2022/05/07 04:32:49;;;;;;;4.43;3.47;;;19.40;62.90;;;;;;5128561;27;47633;-85
2022/05/07 04:35:16;;;;;;;4.10;3.45;;;19.40;63.60;;;;;;5131798;27;45248;-84
2022/05/07 04:37:43;;;;;;;4.78;3.40;;;19.40;63.80;;;;;;5131914;27;45368;-84
2022/05/07 04:40:10;;;;;;;5.95;3.20;;;19.40;64.10;;;;;;5126781;27;45183;-84
2022/05/07 04:42:40;;;;;;;4.65;3.58;;;19.40;64.20;;;;;;5131543;27;45747;-85
2022/05/07 04:45:08;;;;;;;5.45;3.78;;;19.40;64.40;;;;;;5130182;27;45294;-84
2022/05/07 04:47:35;;;;;;;5.18;3.80;;;19.40;64.50;;;;;;5132083;27;45219;-84
2022/05/07 04:50:01;;;;;;;5.18;3.63;;;19.40;64.60;;;;;;5122588;27;45535;-84
2022/05/07 04:52:28;;;;;;;4.45;3.45;;;19.40;64.70;;;;;;5117309;27;46342;-84
2022/05/07 04:54:55;;;;;;;4.50;3.70;;;19.40;64.70;;;;;;5118790;27;45200;-84
2022/05/07 04:57:22;;;;;;;5.13;3.13;;;19.50;65.00;;;;;;5130192;27;45117;-84
2022/05/07 04:59:50;;;;;;;4.32;3.28;;;19.40;65.00;;;;;;5130494;27;45507;-84
2022/05/07 05:02:17;;;;;;;4.85;3.58;;;19.50;65.20;;;;;;5130290;27;47184;-84
2022/05/07 05:04:43;;;;;;;5.45;3.72;;;19.40;65.20;;;;;;5131332;27;45259;-84
2022/05/07 05:07:10;;;;;;;5.50;3.35;;;19.50;65.40;;;;;;5129353;27;45224;-84
2022/05/07 05:09:37;;;;;;;4.13;2.95;;;19.50;65.40;;;;;;5126625;27;45432;-84
2022/05/07 05:12:05;;;;;;;4.70;3.20;;;19.50;65.40;;;;;;5130268;27;45333;-84
2022/05/07 05:17:17;;;;;;;5.43;3.08;;;19.50;65.60;;;;;;5130677;27;45308;-84
2022/05/07 05:19:44;;;;;;;5.28;3.47;;;19.50;65.70;;;;;;5118000;27;45368;-84
2022/05/07 05:22:11;;;;;;;5.43;3.20;;;19.50;65.60;;;;;;5106012;27;45260;-84
2022/05/07 05:24:38;;;;;;;4.38;3.13;;;19.50;65.70;;;;;;5106606;27;45237;-85
2022/05/07 05:27:05;;;;;;;5.05;3.17;;;19.50;65.80;;;;;;5099571;27;45210;-84
2022/05/07 05:29:32;;;;;;;5.13;3.40;;;19.50;65.80;;;;;;5108255;27;45315;-84
2022/05/07 05:31:59;;;;;;;4.72;3.50;;;19.50;65.80;;;;;;5130221;27;46726;-85
2022/05/07 05:34:28;;;;;;;4.47;3.30;;;19.50;65.90;;;;;;5119362;27;45259;-84
2022/05/07 05:36:55;;;;;;;4.05;3.22;;;19.40;66.00;;;;;;5103320;27;45260;-84
2022/05/07 05:39:21;;;;;;;4.85;3.50;;;19.50;66.20;;;;;;5119786;27;45184;-84
2022/05/07 05:41:48;;;;;;;4.32;3.45;;;19.40;66.10;;;;;;5110191;27;45468;-84
2022/05/07 05:44:15;;;;;;;5.85;3.40;;;19.40;66.20;;;;;;5100058;27;45155;-84
2022/05/07 05:46:42;;;;;;;4.60;3.08;;;19.40;66.40;;;;;;5102768;27;46738;-84
2022/05/07 05:49:09;;;;;;;4.30;3.38;;;19.40;66.40;;;;;;5108727;27;45379;-84
2022/05/07 05:51:37;;;;;;;5.60;3.80;;;19.40;66.50;;;;;;5109012;27;45384;-84
2022/05/07 05:54:04;;;;;;;4.55;3.20;;;19.40;66.50;;;;;;5107292;27;45322;-84
2022/05/07 05:56:31;;;;;;;5.38;3.53;;;19.40;66.50;;;;;;5109434;27;45482;-84
2022/05/07 05:58:57;;;;;;;4.70;3.35;;;19.40;66.50;;;;;;5111865;27;45361;-84
2022/05/07 06:01:24;;;;;;;5.05;3.50;;;19.40;66.40;;;;;;5117237;27;47758;-84
2022/05/07 06:03:51;;;;;;;4.35;3.00;;;19.50;66.60;;;;;;5110413;27;45224;-84
2022/05/07 06:06:18;;;;;;;5.40;3.60;;;19.50;66.50;;;;;;5112701;27;45238;-84
2022/05/07 06:08:47;;;;;;;5.68;3.45;;;19.50;66.70;;;;;;5104618;27;45325;-84
2022/05/07 06:11:13;;;;;;;6.20;3.45;;;19.50;66.50;;;;;;5108625;27;47349;-84
2022/05/07 06:13:43;;;;;;;5.47;3.33;;;19.50;66.60;;;;;;5109017;27;45285;-84
2022/05/07 06:16:09;;;;;;;5.18;3.10;;;19.50;66.60;;;;;;5109444;27;45293;-84
2022/05/07 06:18:36;;;;;;;5.55;3.58;;;19.50;66.80;;;;;;5122181;27;45389;-84
2022/05/07 06:21:03;;;;;;;6.22;3.20;;;19.50;66.70;;;;;;5108932;27;47368;-84
2022/05/07 06:23:30;;;;;;;5.03;3.38;;;19.50;66.80;;;;;;5106739;27;46129;-84
2022/05/07 06:28:43;;;;;;;6.40;3.63;;;19.50;66.80;;;;;;5130094;27;45441;-84
2022/05/07 06:31:10;;;;;;;5.72;3.28;;;19.40;67.00;;;;;;5109362;27;46648;-84
2022/05/07 06:33:38;;;;;;;4.78;3.30;;;19.50;67.10;;;;;;5107511;27;45159;-84
2022/05/07 06:36:06;;;;;;;5.82;3.22;;;19.40;67.10;;;;;;5107147;27;45156;-84
2022/05/07 06:38:33;;;;;;;5.03;3.30;;;19.50;67.30;;;;;;5106829;27;45432;-84
2022/05/07 06:41:03;;;;;;;4.47;3.10;;;19.50;67.30;;;;;;5107725;27;46596;-84
2022/05/07 06:43:30;;;;;;;6.57;3.70;;;19.50;67.40;;;;;;5088093;27;45319;-84
2022/05/07 06:45:57;;;;;;;4.90;3.10;;;19.50;67.30;;;;;;5097562;27;45428;-83
2022/05/07 06:48:24;;;;;;;5.80;3.13;;;19.40;67.30;;;;;;5107099;27;45404;-84
2022/05/07 06:50:51;;;;;;;4.05;3.25;;;19.50;67.50;;;;;;5108875;27;47975;-84
2022/05/07 06:53:18;;;;;;;4.45;3.28;;;19.50;67.40;;;;;;5105619;27;45319;-84
2022/05/07 06:55:58;;;;;;;3.70;2.63;;;19.50;67.40;;;;;;5088603;27;45122;-83
2022/05/07 06:58:27;;;;;;;6.05;2.78;;;19.50;67.40;;;;;;5090445;27;45376;-84
2022/05/07 07:00:54;;;;;;;4.57;3.08;;;19.50;67.70;;;;;;5106404;27;48248;-84
2022/05/07 07:03:21;;;;;;;6.20;3.33;;;19.50;67.60;;;;;;5105737;27;45496;-84
2022/05/07 07:05:48;;;;;;;4.78;2.92;;;19.50;67.60;;;;;;5111003;27;45282;-84
2022/05/07 07:08:15;;;;;;;4.22;2.90;;;19.50;67.60;;;;;;5103624;27;45435;-83
2022/05/07 07:10:43;;;;;;;5.25;3.42;;;19.50;67.70;;;;;;5097812;27;47400;-84
2022/05/07 07:13:10;;;;;;;5.85;3.47;;;19.50;67.90;;;;;;5100719;27;45647;-84
2022/05/07 07:15:40;;;;;;;4.85;2.97;;;19.50;68.00;;;;;;5096291;27;45590;-84
2022/05/07 07:18:09;;;;;;;4.03;3.03;;;19.40;68.00;;;;;;5106834;27;45563;-84
2022/05/07 07:20:38;;;;;;;5.50;3.65;;;19.40;68.20;;;;;;5105593;27;46438;-83
2022/05/07 07:23:05;;;;;;;6.72;3.75;;;19.50;68.90;;;;;;5104331;27;45612;-84
2022/05/07 07:25:33;;;;;;;5.13;3.28;;;19.50;69.40;;;;;;5105199;27;46587;-80
2022/05/07 07:27:59;;;;;;;4.80;3.20;;;19.50;70.00;;;;;;5108909;27;45423;-82
2022/05/07 07:30:27;;;;;;;5.43;3.10;;;19.50;69.40;;;;;;5101273;27;46158;-86
2022/05/07 07:32:55;;;;;;;6.30;3.55;;;19.50;69.70;;;;;;5104998;27;45375;-85
2022/05/07 07:35:22;;;;;;;7.53;3.83;;;19.50;68.50;;;;;;5100025;27;45197;-86
2022/05/07 07:37:49;;;;;;;6.32;4.00;;;19.60;67.80;;;;;;5103821;27;45831;-85
2022/05/07 07:40:17;;;;;;;8.90;3.97;;;19.60;67.10;;;;;;5093597;27;47423;-85
2022/05/07 07:42:43;;;;;;;6.05;3.42;;;19.60;66.40;;;;;;5096564;27;45628;-85
2022/05/07 07:48:02;;;;;;;7.25;3.65;;;19.60;66.20;;;;;;5106797;27;45332;-85
2022/05/07 07:50:31;;;;;;;5.38;3.20;;;19.60;66.10;;;;;;5105183;27;45744;-85
2022/05/07 07:53:00;;;;;;;6.13;3.53;;;19.70;66.10;;;;;;5103668;27;45381;-84
2022/05/07 07:55:27;;;;;;;6.13;3.00;;;19.70;66.10;;;;;;5101826;27;45558;-85
2022/05/07 07:57:55;;;;;;;5.63;3.70;;;19.70;66.00;;;;;;5108890;27;45407;-84
2022/05/07 08:00:22;;;;;;;5.82;3.10;;;19.70;66.40;;;;;;5105417;27;45990;-84
2022/05/07 08:02:50;;;;;;;5.07;3.00;;;19.70;66.80;;;;;;5091787;27;46616;-85
2022/05/07 08:05:22;;;;;;;7.68;3.13;;;19.70;66.80;;;;;;5104732;27;45369;-85
2022/05/07 08:13:17;;;;;;;5.18;2.67;;;19.70;67.90;;;;;;5097472;27;45419;-84
2022/05/07 08:15:45;;;;;;;4.50;2.67;;;19.70;68.20;;;;;;5106959;27;45389;-84
2022/05/07 08:18:13;;;;;;;4.40;2.50;;;19.70;68.20;;;;;;5095777;27;45493;-84
2022/05/07 08:20:43;;;;;;;6.13;2.60;;;19.70;68.40;;;;;;5098135;27;46448;-85
2022/05/07 08:23:10;;;;;;;4.00;2.78;;;19.70;68.30;;;;;;5103129;27;45356;-85
2022/05/07 08:25:37;;;;;;;6.97;2.90;;;19.70;68.50;;;;;;5095968;27;45578;-84
2022/05/07 08:28:05;;;;;;;5.70;2.75;;;19.70;68.40;;;;;;5097287;27;45277;-84
2022/05/07 08:30:32;;;;;;;5.07;3.00;;;19.70;68.50;;;;;;5104549;27;47218;-84
2022/05/07 08:32:59;;;;;;;5.78;3.10;;;19.70;68.60;;;;;;5102787;27;45153;-84
2022/05/07 08:35:26;;;;;;;4.53;2.50;;;19.70;68.70;;;;;;5098898;27;45254;-84
2022/05/07 08:37:54;;;;;;;5.13;2.90;;;19.70;68.70;;;;;;5100498;27;45552;-84
2022/05/07 08:40:22;;;;;;;5.93;2.95;;;19.70;68.90;;;;;;5094904;27;45388;-84
2022/05/07 08:42:49;;;;;;;4.65;2.55;;;19.70;68.90;;;;;;5097855;27;45307;-84
2022/05/07 08:45:17;;;;;;;3.67;2.30;;;19.70;68.80;;;;;;5096964;27;45507;-84
2022/05/07 08:47:44;;;;;;;4.68;2.65;;;19.70;68.80;;;;;;5105182;27;45508;-84
2022/05/07 08:50:13;;;;;;;3.22;2.50;;;19.70;68.90;;;;;;5096381;27;47185;-85
2022/05/07 08:52:41;;;;;;;3.83;2.33;;;19.70;69.10;;;;;;5108835;27;45240;-86
2022/05/07 08:55:12;;;;;;;5.25;2.60;;;19.70;69.10;;;;;;5102200;27;45287;-86
2022/05/07 08:57:39;;;;;;;3.10;2.40;;;19.70;68.90;;;;;;5103732;27;45517;-85
2022/05/07 09:00:08;;;;;;;4.53;2.58;;;19.70;69.10;;;;;;5105108;27;45420;-86
2022/05/07 09:02:39;;;;;;;4.57;2.88;;;19.70;69.30;;;;;;5105813;27;46576;-85
2022/05/07 09:05:06;;;;;;;3.60;2.22;;;19.80;69.10;;;;;;5106509;27;45201;-84
2022/05/07 09:07:34;;;;;;;3.40;2.40;;;19.80;68.90;;;;;;5107217;27;45437;-84
2022/05/07 09:10:01;;;;;;;4.68;2.65;;;19.80;68.90;;;;;;5100258;27;46777;-84
2022/05/07 09:12:30;;;;;;;4.65;2.95;;;19.80;69.10;;;;;;5102826;27;45293;-86
2022/05/07 09:15:01;;;;;;;4.15;2.58;;;19.80;70.40;;;;;;5102586;27;45271;-87
2022/05/07 09:17:28;;;;;;;4.20;2.80;;;19.70;69.10;;;;;;5103153;27;45422;-85
2022/05/07 09:19:56;;;;;;;4.43;2.67;;;19.70;69.10;;;;;;5101010;27;47312;-84
2022/05/07 09:22:23;;;;;;;6.13;2.83;;;19.70;69.00;;;;;;5102733;27;45356;-83
2022/05/07 09:24:55;;;;;;;4.90;2.58;;;19.70;69.10;;;;;;5098107;27;45527;-82
2022/05/07 09:27:23;;;;;;;5.00;2.50;;;19.70;69.10;;;;;;5105571;27;45504;-82
2022/05/07 09:30:02;;;;;;;3.80;2.55;;;19.90;69.20;;;;;;5105729;27;47437;-83
2022/05/07 09:32:36;;;;;;;5.15;2.58;;;19.70;69.30;;;;;;5104560;27;45467;-82
2022/05/07 09:38:01;;;;;;;4.88;2.60;;;19.70;69.40;;;;;;5103111;27;45298;-83
2022/05/07 09:40:29;;;;;;;5.30;2.80;;;19.70;69.40;;;;;;5099868;27;46310;-83
2022/05/07 09:42:57;;;;;;;3.47;2.58;;;19.70;69.40;;;;;;5100188;27;45535;-81
2022/05/07 09:45:26;;;;;;;3.70;2.42;;;19.70;69.40;;;;;;5101306;27;45392;-82
2022/05/07 09:47:54;;;;;;;4.38;2.60;;;19.70;69.60;;;;;;5102331;27;45324;-82
2022/05/07 09:50:23;;;;;;;4.40;2.90;;;19.70;69.40;;;;;;5098131;27;46621;-83
2022/05/07 09:58:22;;;;;;;6.15;2.50;;;19.70;73.60;;;;;;5104487;27;45523;-83
2022/05/07 10:01:03;;;;;;;6.93;2.97;;;19.70;73.50;;;;;;5104503;27;47998;-84
2022/05/07 10:03:39;;;;;;;8.93;3.28;;;19.60;74.70;;;;;;5090413;27;45097;-83
2022/05/07 10:06:24;;;;;;;6.07;3.05;;;19.60;74.70;;;;;;5100928;27;46355;-83
2022/05/07 10:09:11;;;;;;;5.25;2.55;;;19.60;75.20;;;;;;5087254;27;45560;-82
2022/05/07 10:11:38;;;;;;;7.18;2.75;;;19.60;75.70;;;;;;5099816;27;45302;-83
2022/05/07 10:14:06;;;;;;;4.53;2.97;;;19.50;75.70;;;;;;5099718;27;45608;-83
2022/05/07 10:16:34;;;;;;;6.88;2.72;;;19.50;76.10;;;;;;5100899;27;45460;-82
2022/05/07 10:19:11;;;;;;;5.50;2.75;;;19.50;76.80;;;;;;5108456;27;45468;-83
2022/05/07 10:21:38;;;;;;;4.78;3.13;;;19.50;77.80;;;;;;5097067;27;45237;-85
2022/05/07 10:24:07;;;;;;;4.82;2.80;;;19.50;77.80;;;;;;5106485;27;45229;-83
2022/05/07 10:26:42;;;;;;;5.93;2.80;;;19.50;77.80;;;;;;5103380;27;45690;-84
2022/05/07 10:29:20;;;;;;;4.00;2.83;;;19.40;78.90;;;;;;5100529;27;45478;-85
2022/05/07 10:31:48;;;;;;;5.18;3.00;;;19.40;79.00;;;;;;5106066;27;46474;-84
2022/05/07 10:34:25;;;;;;;7.35;2.78;;;19.40;79.60;;;;;;5101522;27;45205;-84
2022/05/07 10:37:01;;;;;;;5.13;2.53;;;19.40;79.70;;;;;;5100867;27;45477;-83
2022/05/07 10:39:28;;;;;;;6.65;3.28;;;19.50;80.80;;;;;;5103748;27;45504;-83
2022/05/07 10:41:57;;;;;;;5.40;2.92;;;19.50;81.60;;;;;;5089255;27;47771;-83
2022/05/07 10:44:31;;;;;;;5.97;3.13;;;19.40;81.50;;;;;;5092059;27;46558;-84
2022/05/07 10:47:10;;;;;;;3.97;2.63;;;19.50;83.60;;;;;;5091079;27;45322;-84
2022/05/07 10:49:50;;;;;;;6.20;3.03;;;19.40;83.80;;;;;;5084643;27;45568;-84
2022/05/07 10:52:27;;;;;;;5.03;3.30;;;19.50;83.60;;;;;;5091020;27;48516;-84
2022/05/07 10:55:08;;;;;;;4.78;2.70;;;19.50;83.90;;;;;;5093810;27;45553;-84
2022/05/07 10:57:39;;;;;;;7.22;3.15;;;19.50;85.40;;;;;;5103007;27;45275;-84
2022/05/07 11:00:11;;;;;;;6.30;3.20;;;19.50;85.40;;;;;;5104686;27;45570;-83
2022/05/07 11:02:40;;;;;;;5.25;3.60;;;19.50;86.40;;;;;;5107688;27;46371;-84
2022/05/07 11:05:08;;;;;;;4.60;2.80;;;19.50;84.90;;;;;;5101510;27;45280;-83
2022/05/07 11:07:35;;;;;;;6.63;3.17;;;19.50;84.50;;;;;;5100298;27;45281;-84
2022/05/07 11:10:03;;;;;;;5.50;3.22;;;19.50;84.50;;;;;;5104798;27;45747;-83
2022/05/07 11:12:30;;;;;;;4.75;2.95;;;19.50;84.30;;;;;;5106958;27;47393;-83
2022/05/07 11:14:57;;;;;;;6.13;3.35;;;19.50;84.60;;;;;;5102922;27;45402;-83
2022/05/07 11:17:31;;;;;;;6.68;3.42;;;19.50;84.80;;;;;;5104254;27;45431;-83
2022/05/07 11:20:00;;;;;;;5.60;3.72;;;19.50;85.00;;;;;;5103370;27;45453;-84
2022/05/07 11:22:29;;;;;;;6.47;3.88;;;19.50;84.10;;;;;;5102506;27;45702;-84
2022/05/07 11:24:57;;;;;;;7.50;3.55;;;19.40;84.90;;;;;;5103622;27;45282;-84
2022/05/07 11:27:29;;;;;;;4.70;2.70;;;19.40;85.00;;;;;;5100677;27;45133;-83
2022/05/07 11:29:56;;;;;;;4.75;2.95;;;19.40;85.10;;;;;;5096408;27;45466;-83
2022/05/07 11:32:24;;;;;;;5.63;3.22;;;19.50;85.50;;;;;;5103868;27;45467;-84
2022/05/07 11:34:57;;;;;;;4.97;3.28;;;19.50;85.60;;;;;;5106115;27;45882;-84
2022/05/07 11:37:25;;;;;;;5.80;3.00;;;19.50;88.20;;;;;;5102642;27;45333;-84
2022/05/07 11:39:54;;;;;;;4.88;2.97;;;19.50;87.90;;;;;;5091421;27;45304;-84
2022/05/07 11:42:36;;;;;;;5.53;3.28;;;19.50;88.20;;;;;;5090164;27;45914;-84
2022/05/07 11:47:53;;;;;;;5.88;3.20;;;19.50;88.60;;;;;;5104192;27;45432;-84
2022/05/07 11:50:22;;;;;;;4.47;2.90;;;19.50;89.30;;;;;;5099766;27;45228;-84
2022/05/07 11:52:51;;;;;;;5.35;3.13;;;19.50;89.80;;;;;;5101829;27;47861;-84
2022/05/07 11:55:24;;;;;;;5.82;3.35;;;19.50;89.80;;;;;;5104327;27;45837;-84
2022/05/07 11:57:51;;;;;;;5.38;3.30;;;19.50;89.20;;;;;;5105776;27;45227;-84
2022/05/07 12:00:20;;;;;;;4.22;2.88;;;19.50;90.00;;;;;;5102889;27;45594;-84
2022/05/07 12:02:56;;;;;;;5.53;3.10;;;19.50;90.00;;;;;;5106327;27;45922;-84
2022/05/07 12:05:24;;;;;;;4.32;3.10;;;19.50;88.90;;;;;;5101735;27;45236;-84
2022/05/07 12:07:54;;;;;;;5.07;3.22;;;19.50;87.50;;;;;;5100788;27;45291;-84
2022/05/07 12:10:23;;;;;;;4.82;3.17;;;19.50;87.70;;;;;;5100520;27;45839;-83
2022/05/07 12:12:51;;;;;;;5.57;3.25;;;19.50;87.00;;;;;;5104021;27;46205;-84
2022/05/07 12:17:51;;;;;;;4.72;3.20;;;19.50;87.80;;;;;;5100886;27;45478;-85
2022/05/07 12:18:07;;;;;;;4.85;3.30;;;19.50;87.00;;;;;;5099646;27;45499;-84
2022/05/07 12:20:34;;;;;;;4.60;3.45;;;19.50;87.40;;;;;;5096122;27;45681;-87
2022/05/07 12:31:15;;;;;;;5.03;2.70;;;19.50;89.30;;;;;;5103063;27;45345;-83
2022/05/07 12:33:42;;;;;;;4.80;3.13;;;19.50;90.00;;;;;;5105188;27;46860;-83
2022/05/07 12:36:08;;;;;;;5.78;3.28;;;19.50;90.50;;;;;;5104610;27;45318;-83
2022/05/07 12:38:37;;;;;;;4.20;2.88;;;19.50;90.20;;;;;;5104316;27;46333;-82
2022/05/07 12:41:04;;;;;;;4.22;2.80;;;19.50;90.30;;;;;;5101396;27;45286;-83
2022/05/07 12:43:30;;;;;;;5.13;3.30;;;19.50;90.60;;;;;;5104587;27;47100;-83
2022/05/07 12:45:57;;;;;;;4.40;2.78;;;19.50;90.50;;;;;;5105337;27;45367;-83
2022/05/07 12:48:24;;;;;;;6.50;2.90;;;19.50;90.80;;;;;;5098989;27;45377;-83
2022/05/07 12:50:51;;;;;;;4.40;2.65;;;19.50;90.90;;;;;;5104508;27;45497;-83
2022/05/07 12:53:18;;;;;;;4.30;3.17;;;19.50;91.00;;;;;;5107368;27;47701;-83
2022/05/07 12:55:46;;;;;;;4.53;2.78;;;19.50;91.00;;;;;;5105186;27;45522;-83
2022/05/07 12:58:14;;;;;;;4.28;2.67;;;19.50;90.70;;;;;;5107382;27;45316;-83
2022/05/07 13:00:41;;;;;;;5.88;2.83;;;19.50;90.70;;;;;;5108230;27;45277;-83
2022/05/07 13:03:09;;;;;;;4.13;3.03;;;19.50;90.70;;;;;;5107497;27;46164;-82
2022/05/07 13:05:36;;;;;;;3.92;2.90;;;19.50;90.40;;;;;;5107654;27;46099;-82
2022/05/07 13:08:05;;;;;;;5.53;2.90;;;19.50;90.30;;;;;;5104718;27;45234;-82
2022/05/07 13:10:34;;;;;;;5.13;3.15;;;19.50;90.30;;;;;;5104725;27;45544;-82
2022/05/07 13:13:03;;;;;;;4.70;3.17;;;19.50;89.60;;;;;;5103992;27;46527;-82
2022/05/07 13:15:30;;;;;;;4.85;2.83;;;19.50;90.20;;;;;;5103864;27;46912;-82
2022/05/07 13:17:57;;;;;;;4.30;2.53;;;19.50;90.10;;;;;;5106111;27;45348;-82
2022/05/07 13:20:24;;;;;;;3.38;2.58;;;19.50;90.20;;;;;;5106527;27;45725;-82
2022/05/07 13:22:51;;;;;;;4.45;3.08;;;19.50;90.00;;;;;;5107618;27;46294;-83
2022/05/07 13:25:19;;;;;;;4.00;3.00;;;19.50;90.10;;;;;;5103912;27;45309;-83
2022/05/07 13:27:47;;;;;;;3.00;2.25;;;19.50;90.00;;;;;;5107402;27;45244;-83
2022/05/07 13:30:15;;;;;;;4.72;2.85;;;19.50;90.60;;;;;;5104897;27;45459;-83
2022/05/07 13:32:43;;;;;;;3.85;2.53;;;19.50;90.80;;;;;;5101963;27;45746;-83
2022/05/07 13:35:11;;;;;;;3.03;2.35;;;19.50;90.80;;;;;;5103634;27;46023;-82
2022/05/07 13:37:38;;;;;;;4.15;2.70;;;19.50;91.40;;;;;;5103129;27;45324;-82